Time;durP1;ratioP1;P1;durP2;ratioP2;P2;SDS_P1;SDS_P2;PMS_P1;PMS_P2;Temp;Humidity;BMP_temperature;BMP_pressure;BME280_temperature;BME280_humidity;BME280_pressure;Samples;Min_cycle;Max_cycle;Signal;HPM_P1;HPM_P2
2023/02/15 00:01:56;;;;;;;67.00;29.30;;;;;;;0.40;80.84;102009.02;106579;1267;24220;-56
2023/02/15 00:04:45;;;;;;;81.50;30.80;;;;;;;0.40;80.79;102005.56;106534;1277;24304;-58
2023/02/15 00:07:19;;;;;;;72.80;32.80;;;;;;;0.39;80.83;102002.73;106672;1275;22681;-59
2023/02/15 00:09:50;;;;;;;75.00;33.90;;;;;;;0.38;80.88;102000.04;106728;1281;24652;-56
2023/02/15 00:12:21;;;;;;;81.60;34.90;;;;;;;0.37;80.90;102001.13;106534;1281;22569;-58
2023/02/15 00:14:52;;;;;;;90.20;33.50;;;;;;;0.36;80.89;101999.59;106642;1281;22540;-57
2023/02/15 00:17:23;;;;;;;77.40;34.80;;;;;;;0.34;81.01;101998.95;106495;1270;22553;-56
2023/02/15 00:19:54;;;;;;;81.90;35.70;;;;;;;0.33;80.93;102003.33;106484;1281;24220;-57
2023/02/15 00:22:26;;;;;;;86.90;37.50;;;;;;;0.31;81.05;102006.04;106648;1271;24292;-58
2023/02/15 00:24:56;;;;;;;80.90;36.10;;;;;;;0.29;81.09;102003.34;106912;1279;25509;-57
2023/02/15 00:27:27;;;;;;;87.70;36.30;;;;;;;0.28;81.08;101999.94;106631;1263;24770;-57
2023/02/15 00:29:58;;;;;;;78.20;32.20;;;;;;;0.25;81.06;101995.19;106692;1276;22540;-57
2023/02/15 00:32:29;;;;;;;90.20;36.10;;;;;;;0.23;81.01;101990.38;106564;1276;22499;-59
2023/02/15 00:35:00;;;;;;;85.80;34.50;;;;;;;0.21;81.12;101987.11;106629;1274;25515;-57
2023/02/15 00:37:31;;;;;;;93.60;39.80;;;;;;;0.19;81.11;101984.80;106559;1279;22559;-57
2023/02/15 00:40:02;;;;;;;97.80;39.60;;;;;;;0.17;81.16;101979.36;106660;1279;22543;-57
2023/02/15 00:42:33;;;;;;;98.30;41.20;;;;;;;0.16;81.22;101980.52;106572;1261;22713;-57
2023/02/15 00:45:05;;;;;;;101.00;43.20;;;;;;;0.13;81.22;101975.04;106668;1279;24187;-57
2023/02/15 00:47:36;;;;;;;120.30;46.10;;;;;;;0.10;81.22;101978.52;106772;1264;26589;-58
2023/02/15 00:50:09;;;;;;;112.90;45.00;;;;;;;0.08;81.28;101978.89;106574;1279;22822;-58
2023/02/15 00:52:39;;;;;;;128.20;49.50;;;;;;;0.08;81.27;101978.64;106629;1273;22548;-57
2023/02/15 00:55:11;;;;;;;113.70;45.10;;;;;;;0.07;81.30;101976.44;106682;1278;25510;-57
2023/02/15 00:57:42;;;;;;;114.30;45.80;;;;;;;0.05;81.25;101973.02;106695;1279;24192;-59
2023/02/15 01:00:16;;;;;;;101.50;41.00;;;;;;;0.03;81.29;101976.59;106656;1274;24134;-54
2023/02/15 01:02:47;;;;;;;101.60;42.30;;;;;;;0.02;81.25;101975.63;106806;1279;22540;-57
2023/02/15 01:05:18;;;;;;;113.50;45.20;;;;;;;-0.01;81.35;101977.25;106637;1273;22532;-57
2023/02/15 01:07:49;;;;;;;110.70;45.80;;;;;;;-0.02;81.23;101976.19;106701;1267;22654;-57
2023/02/15 01:10:20;;;;;;;106.60;44.10;;;;;;;-0.07;81.19;101978.67;106659;1279;22541;-56
2023/02/15 01:12:52;;;;;;;109.60;46.10;;;;;;;-0.12;81.22;101977.13;106718;1279;23033;-56
2023/02/15 01:15:24;;;;;;;111.20;45.70;;;;;;;-0.13;81.24;101972.79;106693;1277;22490;-56
2023/02/15 01:17:55;;;;;;;102.90;45.50;;;;;;;-0.15;81.17;101970.79;106612;1270;25931;-56
2023/02/15 01:20:29;;;;;;;100.50;42.10;;;;;;;-0.18;81.09;101969.09;106581;1273;22606;-55
2023/02/15 01:23:00;;;;;;;114.00;47.20;;;;;;;-0.23;80.94;101964.27;106690;1273;23152;-56
2023/02/15 01:25:31;;;;;;;89.90;39.60;;;;;;;-0.32;80.79;101960.83;106635;1264;24155;-57
2023/02/15 01:28:02;;;;;;;88.90;38.00;;;;;;;-0.39;80.85;101958.26;106724;1279;22590;-57
2023/02/15 01:30:34;;;;;;;101.30;39.20;;;;;;;-0.46;80.83;101957.42;106818;1272;22538;-57
2023/02/15 01:33:05;;;;;;;93.70;39.60;;;;;;;-0.54;80.93;101951.63;106623;1267;27063;-57
2023/02/15 01:35:37;;;;;;;92.00;39.60;;;;;;;-0.58;81.04;101951.45;106611;1274;24225;-57
2023/02/15 01:38:08;;;;;;;97.20;41.00;;;;;;;-0.63;81.04;101946.65;106552;1277;24285;-58
2023/02/15 01:40:39;;;;;;;98.40;41.70;;;;;;;-0.68;81.14;101947.50;106420;1277;22831;-58
2023/02/15 01:43:13;;;;;;;95.20;43.40;;;;;;;-0.71;81.05;101943.44;106249;1271;25548;-57
2023/02/15 01:45:47;;;;;;;90.00;39.50;;;;;;;-0.76;80.96;101942.23;106147;1279;25394;-57
2023/02/15 01:48:25;;;;;;;87.60;38.20;;;;;;;-0.82;81.10;101934.29;106134;1279;22533;-55
2023/02/15 01:51:01;;;;;;;94.00;37.70;;;;;;;-0.88;81.04;101930.65;106160;1279;22566;-55
2023/02/15 01:53:38;;;;;;;82.70;37.70;;;;;;;-0.93;81.15;101925.69;106047;1261;22540;-55
2023/02/15 01:56:12;;;;;;;85.90;32.80;;;;;;;-0.96;81.23;101927.66;106087;1273;22533;-57
2023/02/15 01:58:44;;;;;;;75.00;33.30;;;;;;;-1.00;81.04;101926.33;106138;1279;22985;-56
2023/02/15 02:01:15;;;;;;;81.20;36.00;;;;;;;-1.02;81.32;101925.73;106157;1279;24218;-57
2023/02/15 02:03:57;;;;;;;74.80;33.50;;;;;;;-1.02;81.49;101925.73;106117;1279;25376;-58
2023/02/15 02:06:29;;;;;;;69.10;30.30;;;;;;;-1.02;81.53;101924.64;106090;1273;22823;-56
2023/02/15 02:09:00;;;;;;;85.00;35.80;;;;;;;-1.05;81.58;101924.27;106041;1279;24282;-58
2023/02/15 02:11:31;;;;;;;74.80;32.60;;;;;;;-1.05;81.83;101921.34;106213;1271;22532;-57
2023/02/15 02:14:03;;;;;;;79.50;32.40;;;;;;;-1.05;81.83;101919.16;106496;1264;24250;-57
2023/02/15 02:16:43;;;;;;;81.80;37.10;;;;;;;-1.05;81.87;101915.95;106189;1264;23283;-57
2023/02/15 02:19:26;;;;;;;;;;;;;;;-1.03;81.78;101913.95;106100;1271;22518;-56
2023/02/15 02:22:20;;;;;;;90.70;41.50;;;;;;;-1.05;81.92;101908.44;106119;1279;24238;-56
2023/02/15 02:25:18;;;;;;;89.30;38.20;;;;;;;-1.06;82.05;101907.02;106100;1279;22533;-56
2023/02/15 02:27:57;;;;;;;103.50;46.00;;;;;;;-1.08;82.10;101901.65;106213;1279;23162;-56
2023/02/15 02:30:49;;;;;;;109.80;47.60;;;;;;;-1.11;82.15;101898.77;106376;1267;22625;-58
2023/02/15 02:33:40;;;;;;;100.80;42.70;;;;;;;-1.13;82.31;101899.58;105915;1274;24359;-56
2023/02/15 02:36:15;;;;;;;;;;;;;;;-1.15;82.32;101895.77;106180;1279;22524;-56
2023/02/15 02:39:04;;;;;;;99.90;43.60;;;;;;;-1.14;82.32;101888.03;106053;1279;22545;-56
2023/02/15 02:41:45;;;;;;;99.40;41.00;;;;;;;-1.14;82.39;101882.40;106140;1263;24290;-58
2023/02/15 02:44:21;;;;;;;98.90;41.10;;;;;;;-1.15;82.37;101884.50;106226;1264;25313;-58
2023/02/15 02:46:56;;;;;;;99.20;42.10;;;;;;;-1.14;82.44;101884.05;106058;1279;24382;-55
2023/02/15 02:49:35;;;;;;;100.30;43.70;;;;;;;-1.14;82.46;101882.72;106133;1271;25597;-57
2023/02/15 02:52:08;;;;;;;103.40;40.90;;;;;;;-1.15;82.51;101874.06;106264;1279;22543;-56
2023/02/15 02:54:38;;;;;;;96.80;41.80;;;;;;;-1.16;82.47;101871.56;106092;1279;24275;-56
2023/02/15 02:57:11;;;;;;;109.20;44.10;;;;;;;-1.16;82.48;101865.91;106052;1276;23088;-57
2023/02/15 02:59:46;;;;;;;108.00;45.00;;;;;;;-1.19;82.52;101864.20;106262;1278;24386;-57
2023/02/15 03:02:21;;;;;;;108.30;44.40;;;;;;;-1.20;82.54;101866.16;106029;1279;25407;-57
2023/02/15 03:05:03;;;;;;;111.70;45.40;;;;;;;-1.22;82.70;101863.92;106104;1279;22545;-57
2023/02/15 03:07:37;;;;;;;114.10;46.60;;;;;;;-1.23;82.80;101860.92;106074;1276;22653;-57
2023/02/15 03:10:10;;;;;;;115.50;47.40;;;;;;;-1.24;82.79;101859.41;106118;1279;22640;-58
2023/02/15 03:12:42;;;;;;;107.80;45.90;;;;;;;-1.24;82.83;101859.95;106404;1279;25326;-56
2023/02/15 03:15:17;;;;;;;105.00;43.90;;;;;;;-1.26;82.80;101858.52;106197;1276;24453;-57
2023/02/15 03:17:52;;;;;;;99.50;42.90;;;;;;;-1.26;82.89;101857.95;106107;1272;25529;-58
2023/02/15 03:20:27;;;;;;;98.60;39.70;;;;;;;-1.26;82.89;101857.64;106179;1279;22583;-56
2023/02/15 03:23:03;;;;;;;102.10;41.80;;;;;;;-1.26;82.78;101855.14;106158;1279;25691;-59
2023/02/15 03:25:39;;;;;;;96.30;41.30;;;;;;;-1.26;82.89;101855.30;106234;1264;22541;-56
2023/02/15 03:28:14;;;;;;;92.00;36.20;;;;;;;-1.27;82.95;101857.23;106216;1279;24443;-58
2023/02/15 03:30:49;;;;;;;100.40;39.70;;;;;;;-1.28;82.90;101858.63;106174;1279;24303;-55
2023/02/15 03:33:22;;;;;;;91.80;36.30;;;;;;;-1.29;82.79;101857.50;106105;1279;24263;-57
2023/02/15 03:35:59;;;;;;;87.00;36.70;;;;;;;-1.30;82.85;101859.04;106221;1278;24286;-55
2023/02/15 03:38:34;;;;;;;84.80;37.00;;;;;;;-1.31;82.97;101860.28;106054;1276;22537;-57
2023/02/15 03:41:10;;;;;;;95.10;38.10;;;;;;;-1.32;82.85;101861.98;106238;1274;24250;-58
2023/02/15 03:43:49;;;;;;;79.30;33.00;;;;;;;-1.32;82.91;101853.98;106354;1273;23027;-57
2023/02/15 03:46:29;;;;;;;89.50;32.60;;;;;;;-1.32;82.93;101850.16;106166;1273;22533;-58
2023/02/15 03:49:06;;;;;;;78.70;31.20;;;;;;;-1.34;82.96;101845.05;106220;1279;24219;-58
2023/02/15 03:51:43;;;;;;;69.80;29.30;;;;;;;-1.35;82.98;101844.30;106127;1275;22574;-56
2023/02/15 03:54:38;;;;;;;72.60;30.70;;;;;;;-1.38;82.92;101848.80;106092;1264;23023;-58
2023/02/15 04:03:06;;;;;;;61.70;26.20;;;;;;;-1.44;83.42;101856.48;106106;1279;25339;-57
2023/02/15 04:05:37;;;;;;;51.10;21.20;;;;;;;-1.46;83.42;101851.19;106264;1274;22533;-58
2023/02/15 04:08:08;;;;;;;59.40;24.10;;;;;;;-1.50;83.56;101847.75;106078;1279;25530;-57
2023/02/15 04:10:55;;;;;;;57.20;23.00;;;;;;;-1.52;83.76;101846.52;106179;1276;22998;-58
2023/02/15 04:13:33;;;;;;;56.80;22.00;;;;;;;-1.54;83.86;101844.20;106180;1264;22537;-56
2023/02/15 04:16:04;;;;;;;56.60;22.40;;;;;;;-1.55;84.01;101837.60;106336;1279;22684;-57
2023/02/15 04:27:04;;;;;;;51.20;18.90;;;;;;;-1.64;84.57;101825.30;106086;1276;22533;-55
2023/02/15 04:29:35;;;;;;;47.80;19.50;;;;;;;-1.64;84.80;101823.03;106170;1271;25377;-56
2023/02/15 04:32:06;;;;;;;49.40;20.60;;;;;;;-1.64;84.93;101823.52;106050;1277;24292;-57
2023/02/15 04:34:37;;;;;;;49.10;19.40;;;;;;;-1.62;84.92;101822.68;106098;1279;24270;-57
2023/02/15 04:37:08;;;;;;;58.90;23.60;;;;;;;-1.60;84.73;101821.39;106124;1279;22563;-57
2023/02/15 04:39:39;;;;;;;52.00;20.90;;;;;;;-1.58;84.73;101817.73;106082;1274;22545;-58
2023/02/15 04:42:10;;;;;;;52.00;23.10;;;;;;;-1.57;84.72;101820.83;106126;1273;22536;-58
2023/02/15 04:44:41;;;;;;;51.90;19.90;;;;;;;-1.57;84.81;101820.05;105997;1273;24395;-58
2023/02/15 04:47:12;;;;;;;49.10;20.70;;;;;;;-1.57;84.82;101820.59;106047;1273;23186;-56
2023/02/15 04:49:43;;;;;;;51.70;21.40;;;;;;;-1.55;84.77;101822.89;106054;1277;22620;-63
2023/02/15 04:52:14;;;;;;;49.80;21.10;;;;;;;-1.56;84.74;101825.70;106075;1273;24265;-57
2023/02/15 04:54:46;;;;;;;48.70;21.30;;;;;;;-1.57;84.84;101824.11;106171;1279;25628;-58
2023/02/15 04:57:17;;;;;;;52.30;21.50;;;;;;;-1.58;84.85;101820.42;106264;1279;22646;-59
2023/02/15 04:59:48;;;;;;;54.20;20.40;;;;;;;-1.58;84.83;101822.91;106055;1279;22608;-59
2023/02/15 05:02:19;;;;;;;53.90;26.00;;;;;;;-1.58;84.97;101824.25;106036;1276;22615;-57
2023/02/15 05:04:50;;;;;;;46.10;19.90;;;;;;;-1.58;84.94;101825.82;106078;1274;22549;-58
2023/02/15 05:07:21;;;;;;;61.40;23.70;;;;;;;-1.58;84.91;101828.69;106057;1272;23167;-58
2023/02/15 05:09:52;;;;;;;63.40;21.90;;;;;;;-1.59;85.02;101825.09;106093;1279;23010;-60
2023/02/15 05:12:23;;;;;;;57.20;23.50;;;;;;;-1.60;85.10;101828.05;106088;1279;22537;-60
2023/02/15 05:14:53;;;;;;;54.90;22.20;;;;;;;-1.59;85.27;101831.35;106062;1273;22565;-59
2023/02/15 05:17:25;;;;;;;54.40;22.70;;;;;;;-1.62;85.37;101827.69;106098;1276;25394;-57
2023/02/15 05:19:56;;;;;;;51.80;22.30;;;;;;;-1.63;85.27;101822.59;106053;1279;22536;-59
2023/02/15 05:22:27;;;;;;;57.80;24.00;;;;;;;-1.63;85.30;101821.56;106084;1264;22539;-55
2023/02/15 05:30:35;;;;;;;54.80;23.60;;;;;;;-1.68;85.32;101821.85;106072;1278;24378;-55
2023/02/15 05:33:06;;;;;;;61.20;25.10;;;;;;;-1.68;85.33;101821.06;106154;1264;24269;-56
2023/02/15 05:35:37;;;;;;;58.10;24.00;;;;;;;-1.68;85.38;101818.48;106161;1264;24274;-55
2023/02/15 05:38:08;;;;;;;59.30;24.00;;;;;;;-1.68;85.33;101815.19;106015;1276;22530;-57
2023/02/15 05:40:39;;;;;;;57.10;23.80;;;;;;;-1.68;85.23;101813.70;106294;1278;22616;-59
2023/02/15 05:43:10;;;;;;;61.20;25.10;;;;;;;-1.68;85.22;101813.95;106057;1257;22513;-62
2023/02/15 05:45:41;;;;;;;54.80;23.40;;;;;;;-1.69;85.32;101813.37;106139;1279;22691;-58
2023/02/15 05:48:12;;;;;;;58.20;24.80;;;;;;;-1.71;85.32;101810.11;106161;1279;24359;-58
2023/02/15 05:50:43;;;;;;;57.50;23.70;;;;;;;-1.70;85.40;101810.70;106077;1264;22712;-55
2023/02/15 05:53:14;;;;;;;53.70;23.80;;;;;;;-1.70;85.54;101808.98;106125;1278;22537;-59
2023/02/15 05:55:45;;;;;;;61.90;25.30;;;;;;;-1.69;85.50;101808.20;105972;1278;22565;-58
2023/02/15 05:58:16;;;;;;;58.20;24.60;;;;;;;-1.68;85.46;101809.79;106083;1279;24249;-59
2023/02/15 06:00:46;;;;;;;57.50;24.60;;;;;;;-1.66;85.60;101805.38;106145;1279;22574;-59
2023/02/15 06:03:17;;;;;;;59.50;24.40;;;;;;;-1.64;85.66;101807.31;106072;1263;24202;-58
2023/02/15 06:05:48;;;;;;;56.90;23.30;;;;;;;-1.63;85.68;101809.27;106103;1279;22750;-60
2023/02/15 06:08:19;;;;;;;66.20;27.50;;;;;;;-1.62;85.61;101807.34;106105;1279;22629;-60
2023/02/15 06:10:53;;;;;;;52.20;22.50;;;;;;;-1.60;85.69;101813.72;106194;1279;24287;-59
2023/02/15 06:13:24;;;;;;;57.20;25.10;;;;;;;-1.59;85.64;101811.87;106124;1271;24311;-57
2023/02/15 06:15:56;;;;;;;66.10;26.90;;;;;;;-1.58;85.76;101810.87;106129;1279;23905;-59
2023/02/15 06:18:30;;;;;;;63.60;25.60;;;;;;;-1.57;85.72;101816.75;106175;1274;25732;-57
2023/02/15 06:21:01;;;;;;;66.20;27.10;;;;;;;-1.57;85.67;101817.15;106371;1276;24098;-58
2023/02/15 06:23:32;;;;;;;71.80;30.10;;;;;;;-1.56;85.81;101816.02;106341;1265;22803;-56
2023/02/15 06:26:03;;;;;;;67.10;28.10;;;;;;;-1.56;85.72;101819.38;106106;1276;25667;-59
2023/02/15 06:28:34;;;;;;;65.70;28.20;;;;;;;-1.55;85.80;101819.14;106209;1265;22547;-58
2023/02/15 06:31:05;;;;;;;64.60;28.50;;;;;;;-1.55;85.88;101818.98;106168;1279;23119;-56
2023/02/15 06:33:36;;;;;;;71.10;28.50;;;;;;;-1.54;85.79;101817.45;106155;1279;25741;-55
2023/02/15 06:36:07;;;;;;;64.20;28.40;;;;;;;-1.55;85.84;101816.65;106129;1273;22578;-57
2023/02/15 06:38:38;;;;;;;67.60;27.30;;;;;;;-1.54;85.82;101811.90;106143;1279;23116;-59
2023/02/15 06:41:09;;;;;;;66.00;28.80;;;;;;;-1.54;85.75;101813.38;106109;1277;25482;-59
2023/02/15 06:43:40;;;;;;;66.60;26.80;;;;;;;-1.55;85.78;101807.65;106112;1277;25544;-56
2023/02/15 06:46:11;;;;;;;69.00;30.00;;;;;;;-1.55;85.78;101805.15;106274;1265;24392;-59
2023/02/15 06:48:42;;;;;;;68.90;29.30;;;;;;;-1.57;85.82;101807.45;106164;1279;24592;-59
2023/02/15 06:51:13;;;;;;;68.80;31.80;;;;;;;-1.56;85.96;101804.11;106106;1264;22726;-57
2023/02/15 06:53:44;;;;;;;64.40;29.70;;;;;;;-1.55;85.97;101802.86;106118;1277;24112;-58
2023/02/15 06:56:15;;;;;;;94.80;44.40;;;;;;;-1.55;86.01;101798.73;106085;1276;24411;-57
2023/02/15 06:58:48;;;;;;;131.80;65.40;;;;;;;-1.56;86.14;101798.80;106049;1277;22676;-58
2023/02/15 07:01:20;;;;;;;133.30;68.10;;;;;;;-1.57;86.35;101800.72;106171;1279;25597;-58
2023/02/15 07:03:51;;;;;;;194.40;99.80;;;;;;;-1.57;86.33;101803.99;106179;1279;22598;-58
2023/02/15 07:06:22;;;;;;;162.30;85.20;;;;;;;-1.60;86.53;101808.73;106186;1277;24248;-56
2023/02/15 07:08:53;;;;;;;159.10;84.00;;;;;;;-1.61;86.71;101806.82;106123;1274;23033;-57
2023/02/15 07:14:13;;;;;;;120.50;56.10;;;;;;;-1.58;87.29;101804.84;106096;1266;22558;-59
2023/02/15 07:16:44;;;;;;;114.10;55.50;;;;;;;-1.56;87.24;101801.53;106160;1274;22814;-59
2023/02/15 07:19:15;;;;;;;102.50;50.30;;;;;;;-1.54;87.20;101799.30;106268;1272;25590;-58
2023/02/15 07:21:47;;;;;;;99.70;47.10;;;;;;;-1.53;87.12;101795.41;106300;1272;22534;-57
2023/02/15 07:24:18;;;;;;;112.20;53.60;;;;;;;-1.50;87.10;101790.85;106134;1267;22801;-57
2023/02/15 07:26:49;;;;;;;93.60;42.40;;;;;;;-1.47;87.46;101792.65;106081;1279;24411;-56
2023/02/15 07:29:20;;;;;;;92.20;42.60;;;;;;;-1.42;87.82;101791.24;106175;1276;22541;-58
2023/02/15 07:31:51;;;;;;;86.90;39.90;;;;;;;-1.38;88.00;101787.48;106184;1273;22624;-58
2023/02/15 07:34:22;;;;;;;82.20;38.90;;;;;;;-1.35;88.07;101785.90;106205;1272;25248;-57
2023/02/15 07:36:54;;;;;;;95.70;40.60;;;;;;;-1.32;88.12;101788.88;106139;1275;24239;-58
2023/02/15 07:39:25;;;;;;;114.30;45.70;;;;;;;-1.29;88.40;101787.38;106131;1279;24319;-59
2023/02/15 07:41:56;;;;;;;118.90;46.40;;;;;;;-1.23;88.95;101786.46;106093;1279;24000;-57
2023/02/15 07:44:27;;;;;;;123.70;51.00;;;;;;;-1.18;88.95;101785.16;106122;1264;22694;-59
2023/02/15 07:46:58;;;;;;;118.60;46.80;;;;;;;-1.12;89.43;101782.23;106121;1279;22568;-58
2023/02/15 07:49:29;;;;;;;120.50;46.60;;;;;;;-1.04;90.17;101777.36;106125;1274;22981;-59
2023/02/15 07:52:02;;;;;;;89.30;36.70;;;;;;;-0.96;90.53;101779.02;106249;1275;22542;-56
2023/02/15 07:54:33;;;;;;;86.10;37.80;;;;;;;-0.90;90.51;101774.11;106106;1274;22533;-57
2023/02/15 07:57:05;;;;;;;75.00;33.30;;;;;;;-0.84;90.40;101767.55;106211;1279;24401;-58
2023/02/15 07:59:36;;;;;;;78.60;32.40;;;;;;;-0.77;90.76;101768.61;106285;1279;24328;-57
2023/02/15 08:02:09;;;;;;;77.20;29.50;;;;;;;-0.70;90.90;101759.65;106134;1278;22531;-59
2023/02/15 08:04:40;;;;;;;74.60;30.90;;;;;;;-0.63;90.89;101759.52;106171;1279;24278;-57
2023/02/15 08:07:11;;;;;;;74.10;30.60;;;;;;;-0.57;91.03;101764.56;106093;1271;22533;-56
2023/02/15 08:09:42;;;;;;;72.50;30.30;;;;;;;-0.50;91.15;101763.52;106097;1279;24279;-56
2023/02/15 08:12:13;;;;;;;79.00;32.80;;;;;;;-0.43;91.22;101763.00;106195;1276;24262;-56
2023/02/15 08:14:45;;;;;;;82.00;32.40;;;;;;;-0.36;91.30;101762.00;106351;1279;22531;-58
2023/02/15 08:17:16;;;;;;;82.00;31.10;;;;;;;-0.28;91.35;101759.38;106170;1276;22538;-56
2023/02/15 08:19:47;;;;;;;76.50;31.40;;;;;;;-0.22;91.52;101757.05;106429;1274;22533;-56
2023/02/15 08:22:19;;;;;;;66.60;28.50;;;;;;;-0.15;91.44;101753.88;106131;1278;22527;-60
2023/02/15 08:24:50;;;;;;;65.10;27.40;;;;;;;-0.07;91.70;101744.95;106346;1265;25620;-61
2023/02/15 08:27:26;;;;;;;75.10;30.60;;;;;;;0.01;91.67;101746.09;106528;1277;24280;-57
2023/02/15 08:29:57;;;;;;;73.90;31.80;;;;;;;0.09;91.70;101744.16;106125;1273;27081;-58
2023/02/15 08:32:28;;;;;;;75.50;29.90;;;;;;;0.16;91.56;101738.45;106251;1276;25558;-58
2023/02/15 08:34:59;;;;;;;74.90;30.40;;;;;;;0.22;91.53;101738.85;106217;1276;24236;-57
2023/02/15 08:37:30;;;;;;;71.90;29.50;;;;;;;0.29;91.61;101732.73;106104;1279;22529;-57
2023/02/15 08:40:02;;;;;;;66.90;29.80;;;;;;;0.36;91.66;101729.21;106141;1279;24353;-58
2023/02/15 08:42:35;;;;;;;59.80;27.10;;;;;;;0.42;91.73;101730.15;106419;1275;22531;-58
2023/02/15 08:45:07;;;;;;;69.60;28.10;;;;;;;0.50;91.78;101727.41;106208;1276;22536;-58
2023/02/15 08:47:39;;;;;;;67.50;27.60;;;;;;;0.58;91.60;101724.38;106182;1277;22524;-59
2023/02/15 08:50:11;;;;;;;66.30;26.20;;;;;;;0.64;91.55;101726.71;106252;1279;22626;-59
2023/02/15 08:52:43;;;;;;;69.10;26.40;;;;;;;0.71;91.38;101723.19;106156;1278;22536;-58
2023/02/15 08:55:15;;;;;;;64.30;25.50;;;;;;;0.77;91.19;101723.08;106184;1264;24356;-57
2023/02/15 08:57:47;;;;;;;62.70;26.00;;;;;;;0.82;91.09;101723.15;106178;1274;24227;-58
2023/02/15 09:00:22;;;;;;;63.90;25.10;;;;;;;0.88;91.04;101720.94;106137;1255;24287;-58
2023/02/15 09:02:53;;;;;;;64.00;25.90;;;;;;;0.95;91.21;101718.25;106307;1271;24369;-57
2023/02/15 09:05:24;;;;;;;64.10;26.60;;;;;;;1.02;91.19;101720.13;106235;1264;24260;-58
2023/02/15 09:07:55;;;;;;;57.90;24.40;;;;;;;1.07;90.90;101717.48;106149;1265;22633;-59
2023/02/15 09:10:26;;;;;;;57.30;22.80;;;;;;;1.12;91.01;101715.27;106106;1257;23032;-58
2023/02/15 09:12:58;;;;;;;57.80;23.40;;;;;;;1.20;91.09;101709.45;106315;1278;25500;-58
2023/02/15 09:15:29;;;;;;;66.50;27.70;;;;;;;1.27;91.00;101711.00;106396;1256;22558;-59
2023/02/15 09:18:04;;;;;;;59.40;24.80;;;;;;;1.34;90.96;101714.05;106068;1256;24195;-58
2023/02/15 09:20:37;;;;;;;58.40;24.10;;;;;;;1.42;90.98;101713.01;106135;1274;22539;-58
2023/02/15 09:23:08;;;;;;;60.00;25.70;;;;;;;1.50;90.91;101709.70;106268;1274;22552;-59
2023/02/15 09:25:39;;;;;;;62.50;25.60;;;;;;;1.56;90.64;101706.66;106142;1277;22583;-57
2023/02/15 09:28:10;;;;;;;60.10;25.90;;;;;;;1.63;90.66;101698.84;106199;1273;22933;-58
2023/02/15 09:30:41;;;;;;;59.00;24.80;;;;;;;1.71;90.63;101701.81;106076;1279;22552;-57
2023/02/15 09:33:12;;;;;;;54.60;23.90;;;;;;;1.78;90.65;101697.61;106087;1276;22712;-58
2023/02/15 09:35:43;;;;;;;59.80;26.70;;;;;;;1.89;90.83;101695.23;106090;1279;24281;-57
2023/02/15 09:38:14;;;;;;;57.40;25.90;;;;;;;2.00;90.91;101696.23;106032;1274;24337;-59
2023/02/15 09:40:55;;;;;;;62.40;26.00;;;;;;;2.09;90.76;101700.70;106482;1271;22581;-60
2023/02/15 09:43:40;;;;;;;62.60;26.40;;;;;;;2.17;90.51;101704.12;106747;1277;24195;-58
2023/02/15 09:46:26;;;;;;;73.80;30.00;;;;;;;2.25;90.62;101704.00;106755;1271;24252;-59
2023/02/15 09:49:06;;;;;;;77.40;31.20;;;;;;;2.34;90.71;101694.50;106790;1279;24146;-60
2023/02/15 09:52:06;;;;;;;61.10;27.30;;;;;;;2.46;90.60;101689.59;106829;1279;23031;-59
2023/02/15 09:54:47;;;;;;;62.30;27.20;;;;;;;2.56;90.38;101691.83;107030;1277;22487;-59
2023/02/15 09:57:29;;;;;;;61.70;27.10;;;;;;;2.62;90.12;101690.27;106715;1275;23001;-60
2023/02/15 10:00:13;;;;;;;62.70;26.80;;;;;;;2.70;90.01;101688.63;106957;1279;23956;-58
2023/02/15 10:03:04;;;;;;;60.60;23.80;;;;;;;2.80;89.93;101689.20;106823;1277;22537;-59
2023/02/15 10:05:49;;;;;;;64.00;27.70;;;;;;;2.93;89.95;101684.81;106804;1274;22562;-59
2023/02/15 10:09:03;;;;;;;62.10;24.70;;;;;;;2.99;89.64;101688.36;106876;1277;23299;-59
2023/02/15 10:11:52;;;;;;;56.60;23.70;;;;;;;3.08;89.58;101689.48;106710;1279;22550;-57
2023/02/15 10:14:51;;;;;;;54.10;22.60;;;;;;;3.17;89.30;101681.91;106841;1267;22500;-55
2023/02/15 10:17:34;;;;;;;59.80;25.90;;;;;;;3.23;88.92;101676.24;106722;1273;24091;-58
2023/02/15 10:20:18;;;;;;;53.50;23.00;;;;;;;3.31;89.04;101667.17;106884;1278;25553;-56
2023/02/15 10:23:08;;;;;;;56.40;24.00;;;;;;;3.38;88.82;101666.54;106874;1279;25239;-56
2023/02/15 10:25:47;;;;;;;58.20;25.50;;;;;;;3.44;88.46;101662.98;106747;1280;22559;-57
2023/02/15 10:28:24;;;;;;;52.40;24.20;;;;;;;3.49;88.39;101661.56;106737;1272;24479;-60
2023/02/15 10:31:04;;;;;;;61.30;26.00;;;;;;;3.51;88.25;101654.62;106586;1279;22544;-57
2023/02/15 10:33:41;;;;;;;50.40;21.60;;;;;;;3.54;88.26;101654.29;106298;1276;24319;-57
2023/02/15 10:36:32;;;;;;;59.80;26.70;;;;;;;3.59;88.12;101647.73;106144;1273;22533;-59
2023/02/15 10:39:08;;;;;;;54.00;24.20;;;;;;;3.66;88.18;101647.47;106185;1278;25307;-60
2023/02/15 10:41:48;;;;;;;58.70;26.00;;;;;;;3.70;87.97;101642.66;106238;1279;25308;-58
2023/02/15 10:44:38;;;;;;;57.80;25.90;;;;;;;3.73;87.88;101639.89;106137;1271;22659;-56
2023/02/15 10:47:24;;;;;;;59.10;25.50;;;;;;;3.80;87.57;101639.71;106101;1275;22543;-55
2023/02/15 10:50:14;;;;;;;60.80;24.70;;;;;;;3.87;87.67;101634.41;106111;1278;22715;-57
2023/02/15 10:52:58;;;;;;;60.90;25.50;;;;;;;3.95;87.61;101631.69;106197;1278;23009;-57
2023/02/15 10:55:38;;;;;;;61.30;29.20;;;;;;;3.99;87.56;101623.46;106153;1279;22536;-57
2023/02/15 10:58:13;;;;;;;;;;;;;;;3.99;87.23;101619.04;106137;1279;22626;-57
2023/02/15 11:00:50;;;;;;;57.00;24.80;;;;;;;3.97;87.19;101618.11;106148;1279;22535;-59
2023/02/15 11:03:34;;;;;;;58.40;25.70;;;;;;;3.99;87.02;101619.76;106221;1277;22558;-57
2023/02/15 11:06:10;;;;;;;64.70;28.20;;;;;;;4.02;86.95;101619.67;106102;1276;22537;-59
2023/02/15 11:08:44;;;;;;;60.60;26.50;;;;;;;4.06;87.03;101615.46;106185;1270;22540;-60
2023/02/15 11:11:24;;;;;;;57.90;25.00;;;;;;;4.09;86.80;101612.45;106217;1277;24196;-62
2023/02/15 11:14:00;;;;;;;64.00;29.10;;;;;;;4.16;86.81;101606.09;106190;1274;22530;-58
2023/02/15 11:16:37;;;;;;;64.40;28.90;;;;;;;4.20;86.69;101599.52;106279;1279;22533;-60
2023/02/15 11:19:13;;;;;;;68.50;28.20;;;;;;;4.24;86.54;101593.51;106182;1274;22534;-59
2023/02/15 11:21:49;;;;;;;62.60;26.20;;;;;;;4.30;86.56;101585.26;106271;1279;22533;-60
2023/02/15 11:24:22;;;;;;;54.10;23.60;;;;;;;4.36;86.17;101583.63;106181;1274;25060;-59
2023/02/15 11:26:58;;;;;;;62.50;26.40;;;;;;;4.42;85.67;101579.33;106226;1279;22540;-59
2023/02/15 11:29:34;;;;;;;58.30;26.20;;;;;;;4.46;85.74;101579.39;106185;1277;22552;-62
2023/02/15 11:32:19;;;;;;;59.70;27.40;;;;;;;4.48;85.78;101579.30;106099;1277;22523;-62
2023/02/15 11:34:54;;;;;;;58.60;25.80;;;;;;;4.51;85.83;101574.61;106208;1265;22538;-59
2023/02/15 11:37:35;;;;;;;53.50;23.00;;;;;;;4.56;85.15;101572.27;106187;1279;22539;-58
2023/02/15 11:40:20;;;;;;;55.20;25.80;;;;;;;4.60;85.16;101567.19;106132;1279;22536;-58
2023/02/15 11:42:53;;;;;;;59.50;27.60;;;;;;;4.68;85.38;101562.16;106199;1279;24382;-60
2023/02/15 11:45:30;;;;;;;71.60;29.20;;;;;;;4.75;85.28;101557.99;106292;1276;24399;-59
2023/02/15 11:48:06;;;;;;;61.80;28.10;;;;;;;4.79;85.20;101557.96;106254;1279;22536;-56
2023/02/15 11:50:37;;;;;;;60.20;27.40;;;;;;;4.83;84.80;101550.89;106187;1274;25395;-60
2023/02/15 11:53:13;;;;;;;60.90;26.20;;;;;;;4.88;84.64;101549.42;106174;1277;22526;-60
2023/02/15 11:55:47;;;;;;;62.40;27.50;;;;;;;4.93;84.40;101546.61;107327;1271;22828;-60
2023/02/15 11:58:29;;;;;;;61.00;28.90;;;;;;;4.95;84.38;101546.11;107156;1272;22532;-61
2023/02/15 12:01:10;;;;;;;63.30;28.60;;;;;;;4.97;84.25;101543.57;107053;1274;22549;-62